sensor_id;sensor_type;location;lat;lon;timestamp;P1;durP1;ratioP1;P2;durP2;ratioP2
79464;SDS011;68932;47.410;8.232;2023-04-25T00:00:40;3.60;;;2.20;;
79464;SDS011;68932;47.410;8.232;2023-04-25T00:03:07;3.90;;;2.30;;
79464;SDS011;68932;47.410;8.232;2023-04-25T00:05:34;3.20;;;2.10;;
79464;SDS011;68932;47.410;8.232;2023-04-25T00:08:02;4.90;;;2.90;;
79464;SDS011;68932;47.410;8.232;2023-04-25T00:10:29;3.70;;;3.30;;
79464;SDS011;68932;47.410;8.232;2023-04-25T00:12:56;3.90;;;1.80;;
79464;SDS011;68932;47.410;8.232;2023-04-25T00:15:23;4.30;;;2.10;;
79464;SDS011;68932;47.410;8.232;2023-04-25T00:17:50;3.20;;;2.50;;
79464;SDS011;68932;47.410;8.232;2023-04-25T00:20:17;3.70;;;2.80;;
79464;SDS011;68932;47.410;8.232;2023-04-25T00:22:44;3.20;;;2.20;;
79464;SDS011;68932;47.410;8.232;2023-04-25T00:25:11;3.40;;;2.10;;
79464;SDS011;68932;47.410;8.232;2023-04-25T00:27:38;3.90;;;2.20;;
79464;SDS011;68932;47.410;8.232;2023-04-25T00:30:07;3.40;;;2.50;;
79464;SDS011;68932;47.410;8.232;2023-04-25T00:32:35;3.10;;;2.40;;
79464;SDS011;68932;47.410;8.232;2023-04-25T00:35:02;4.00;;;2.30;;
79464;SDS011;68932;47.410;8.232;2023-04-25T00:37:29;5.90;;;2.70;;
79464;SDS011;68932;47.410;8.232;2023-04-25T00:39:57;6.00;;;2.60;;
79464;SDS011;68932;47.410;8.232;2023-04-25T00:42:24;4.20;;;3.70;;
79464;SDS011;68932;47.410;8.232;2023-04-25T00:44:52;4.40;;;2.30;;
79464;SDS011;68932;47.410;8.232;2023-04-25T00:47:20;3.90;;;2.60;;
79464;SDS011;68932;47.410;8.232;2023-04-25T00:49:48;4.60;;;2.30;;
79464;SDS011;68932;47.410;8.232;2023-04-25T00:52:15;5.70;;;2.50;;
79464;SDS011;68932;47.410;8.232;2023-04-25T00:54:42;3.30;;;2.50;;
79464;SDS011;68932;47.410;8.232;2023-04-25T00:57:09;4.70;;;2.60;;
79464;SDS011;68932;47.410;8.232;2023-04-25T00:59:36;5.30;;;2.50;;
79464;SDS011;68932;47.410;8.232;2023-04-25T01:02:10;4.60;;;2.70;;
79464;SDS011;68932;47.410;8.232;2023-04-25T01:04:37;2.30;;;1.90;;
79464;SDS011;68932;47.410;8.232;2023-04-25T01:07:04;4.20;;;2.70;;
79464;SDS011;68932;47.410;8.232;2023-04-25T01:09:32;3.70;;;2.30;;
79464;SDS011;68932;47.410;8.232;2023-04-25T01:11:59;3.60;;;1.90;;
79464;SDS011;68932;47.410;8.232;2023-04-25T01:14:26;3.00;;;1.90;;
79464;SDS011;68932;47.410;8.232;2023-04-25T01:16:53;4.70;;;2.40;;
79464;SDS011;68932;47.410;8.232;2023-04-25T01:19:20;3.80;;;2.20;;
79464;SDS011;68932;47.410;8.232;2023-04-25T01:21:47;3.50;;;2.70;;
79464;SDS011;68932;47.410;8.232;2023-04-25T01:24:14;2.20;;;2.00;;
79464;SDS011;68932;47.410;8.232;2023-04-25T01:26:42;6.30;;;2.60;;
79464;SDS011;68932;47.410;8.232;2023-04-25T01:29:10;6.60;;;2.70;;
79464;SDS011;68932;47.410;8.232;2023-04-25T01:31:37;4.00;;;2.20;;
79464;SDS011;68932;47.410;8.232;2023-04-25T01:34:04;3.60;;;2.80;;
79464;SDS011;68932;47.410;8.232;2023-04-25T01:36:31;3.90;;;2.80;;
79464;SDS011;68932;47.410;8.232;2023-04-25T01:38:59;2.20;;;1.90;;
79464;SDS011;68932;47.410;8.232;2023-04-25T01:41:26;5.60;;;2.10;;
79464;SDS011;68932;47.410;8.232;2023-04-25T01:43:53;5.80;;;2.60;;
79464;SDS011;68932;47.410;8.232;2023-04-25T01:46:20;4.00;;;2.50;;
79464;SDS011;68932;47.410;8.232;2023-04-25T01:48:47;3.10;;;2.10;;
79464;SDS011;68932;47.410;8.232;2023-04-25T01:51:14;4.50;;;2.30;;
79464;SDS011;68932;47.410;8.232;2023-04-25T01:53:41;3.80;;;2.30;;
79464;SDS011;68932;47.410;8.232;2023-04-25T01:56:09;6.10;;;2.40;;
79464;SDS011;68932;47.410;8.232;2023-04-25T01:58:36;6.20;;;3.00;;
79464;SDS011;68932;47.410;8.232;2023-04-25T02:01:03;4.40;;;2.40;;
79464;SDS011;68932;47.410;8.232;2023-04-25T02:03:30;3.90;;;2.20;;
79464;SDS011;68932;47.410;8.232;2023-04-25T02:05:58;4.50;;;2.30;;
79464;SDS011;68932;47.410;8.232;2023-04-25T02:08:24;3.80;;;2.40;;
79464;SDS011;68932;47.410;8.232;2023-04-25T02:10:51;3.00;;;2.30;;
79464;SDS011;68932;47.410;8.232;2023-04-25T02:13:18;3.50;;;2.50;;
79464;SDS011;68932;47.410;8.232;2023-04-25T02:15:45;4.50;;;2.10;;
79464;SDS011;68932;47.410;8.232;2023-04-25T02:18:12;4.10;;;2.20;;
79464;SDS011;68932;47.410;8.232;2023-04-25T02:20:39;4.80;;;1.80;;
79464;SDS011;68932;47.410;8.232;2023-04-25T02:23:06;3.30;;;2.20;;
79464;SDS011;68932;47.410;8.232;2023-04-25T02:25:34;4.30;;;2.30;;
79464;SDS011;68932;47.410;8.232;2023-04-25T02:28:01;6.30;;;2.20;;
79464;SDS011;68932;47.410;8.232;2023-04-25T02:30:28;3.60;;;2.10;;
79464;SDS011;68932;47.410;8.232;2023-04-25T02:32:55;4.00;;;2.30;;
79464;SDS011;68932;47.410;8.232;2023-04-25T02:35:22;3.20;;;1.80;;
79464;SDS011;68932;47.410;8.232;2023-04-25T02:37:49;4.30;;;2.10;;
79464;SDS011;68932;47.410;8.232;2023-04-25T02:40:16;3.80;;;2.60;;
79464;SDS011;68932;47.410;8.232;2023-04-25T02:42:43;5.20;;;2.80;;
79464;SDS011;68932;47.410;8.232;2023-04-25T02:45:10;4.50;;;2.50;;
79464;SDS011;68932;47.410;8.232;2023-04-25T02:47:37;4.20;;;2.30;;
79464;SDS011;68932;47.410;8.232;2023-04-25T02:50:05;3.70;;;2.00;;
79464;SDS011;68932;47.410;8.232;2023-04-25T02:52:33;3.90;;;3.20;;
79464;SDS011;68932;47.410;8.232;2023-04-25T02:55:00;5.00;;;2.80;;
79464;SDS011;68932;47.410;8.232;2023-04-25T02:57:27;2.70;;;1.80;;
79464;SDS011;68932;47.410;8.232;2023-04-25T02:59:54;2.50;;;2.10;;
79464;SDS011;68932;47.410;8.232;2023-04-25T03:02:21;3.60;;;2.40;;
79464;SDS011;68932;47.410;8.232;2023-04-25T03:04:48;3.80;;;1.90;;
79464;SDS011;68932;47.410;8.232;2023-04-25T03:07:15;4.20;;;2.30;;
79464;SDS011;68932;47.410;8.232;2023-04-25T03:09:42;4.80;;;3.50;;
79464;SDS011;68932;47.410;8.232;2023-04-25T03:12:08;3.20;;;2.50;;
79464;SDS011;68932;47.410;8.232;2023-04-25T03:14:35;6.50;;;2.70;;
79464;SDS011;68932;47.410;8.232;2023-04-25T03:17:02;4.50;;;2.50;;
79464;SDS011;68932;47.410;8.232;2023-04-25T03:19:29;6.70;;;2.80;;
79464;SDS011;68932;47.410;8.232;2023-04-25T03:21:56;5.20;;;2.10;;
79464;SDS011;68932;47.410;8.232;2023-04-25T03:24:23;3.70;;;2.30;;
79464;SDS011;68932;47.410;8.232;2023-04-25T03:26:50;4.70;;;2.20;;
79464;SDS011;68932;47.410;8.232;2023-04-25T03:29:17;4.90;;;2.10;;
79464;SDS011;68932;47.410;8.232;2023-04-25T03:31:44;3.40;;;2.30;;
79464;SDS011;68932;47.410;8.232;2023-04-25T03:34:11;3.50;;;2.20;;
79464;SDS011;68932;47.410;8.232;2023-04-25T03:36:38;4.10;;;2.80;;
79464;SDS011;68932;47.410;8.232;2023-04-25T03:39:05;6.40;;;4.30;;
79464;SDS011;68932;47.410;8.232;2023-04-25T03:41:32;4.70;;;2.60;;
79464;SDS011;68932;47.410;8.232;2023-04-25T03:43:59;3.70;;;2.40;;
79464;SDS011;68932;47.410;8.232;2023-04-25T03:46:26;4.60;;;2.40;;
79464;SDS011;68932;47.410;8.232;2023-04-25T03:48:52;4.40;;;2.70;;
79464;SDS011;68932;47.410;8.232;2023-04-25T03:51:19;6.00;;;2.50;;
79464;SDS011;68932;47.410;8.232;2023-04-25T03:53:47;2.60;;;2.30;;
79464;SDS011;68932;47.410;8.232;2023-04-25T03:56:14;4.20;;;2.00;;
79464;SDS011;68932;47.410;8.232;2023-04-25T03:58:41;3.90;;;1.90;;
79464;SDS011;68932;47.410;8.232;2023-04-25T04:01:08;6.70;;;2.10;;
79464;SDS011;68932;47.410;8.232;2023-04-25T04:03:35;5.00;;;2.30;;
79464;SDS011;68932;47.410;8.232;2023-04-25T04:06:03;2.70;;;1.50;;
79464;SDS011;68932;47.410;8.232;2023-04-25T04:08:31;3.40;;;2.90;;
79464;SDS011;68932;47.410;8.232;2023-04-25T04:10:58;3.00;;;1.60;;
79464;SDS011;68932;47.410;8.232;2023-04-25T04:13:26;5.30;;;2.30;;
79464;SDS011;68932;47.410;8.232;2023-04-25T04:15:53;6.50;;;2.50;;
79464;SDS011;68932;47.410;8.232;2023-04-25T04:18:21;5.20;;;2.80;;
79464;SDS011;68932;47.410;8.232;2023-04-25T04:20:48;6.70;;;2.70;;
79464;SDS011;68932;47.410;8.232;2023-04-25T04:23:15;3.80;;;2.50;;
79464;SDS011;68932;47.410;8.232;2023-04-25T04:25:42;3.50;;;2.60;;
79464;SDS011;68932;47.410;8.232;2023-04-25T04:28:09;6.10;;;3.00;;
79464;SDS011;68932;47.410;8.232;2023-04-25T04:30:36;5.20;;;2.90;;
79464;SDS011;68932;47.410;8.232;2023-04-25T04:33:03;4.70;;;3.20;;
79464;SDS011;68932;47.410;8.232;2023-04-25T04:35:29;3.00;;;2.40;;
79464;SDS011;68932;47.410;8.232;2023-04-25T04:37:56;4.90;;;1.60;;
79464;SDS011;68932;47.410;8.232;2023-04-25T04:40:23;6.10;;;2.10;;
79464;SDS011;68932;47.410;8.232;2023-04-25T04:42:51;4.00;;;2.90;;
79464;SDS011;68932;47.410;8.232;2023-04-25T04:45:18;5.30;;;2.20;;
79464;SDS011;68932;47.410;8.232;2023-04-25T04:47:45;4.50;;;2.50;;
79464;SDS011;68932;47.410;8.232;2023-04-25T04:50:12;4.50;;;2.50;;
79464;SDS011;68932;47.410;8.232;2023-04-25T04:52:39;4.10;;;2.30;;
79464;SDS011;68932;47.410;8.232;2023-04-25T04:55:07;4.50;;;2.30;;
79464;SDS011;68932;47.410;8.232;2023-04-25T04:57:35;4.90;;;2.40;;
79464;SDS011;68932;47.410;8.232;2023-04-25T05:00:02;3.70;;;2.40;;
79464;SDS011;68932;47.410;8.232;2023-04-25T05:02:31;4.60;;;2.80;;
79464;SDS011;68932;47.410;8.232;2023-04-25T05:04:58;3.60;;;2.40;;
79464;SDS011;68932;47.410;8.232;2023-04-25T05:07:25;5.30;;;2.90;;
79464;SDS011;68932;47.410;8.232;2023-04-25T05:09:52;4.00;;;3.10;;
79464;SDS011;68932;47.410;8.232;2023-04-25T05:12:19;5.20;;;2.50;;
79464;SDS011;68932;47.410;8.232;2023-04-25T05:14:46;7.50;;;3.10;;
79464;SDS011;68932;47.410;8.232;2023-04-25T05:17:13;5.00;;;3.30;;
79464;SDS011;68932;47.410;8.232;2023-04-25T05:19:39;4.60;;;3.00;;
79464;SDS011;68932;47.410;8.232;2023-04-25T05:22:06;5.20;;;2.90;;
79464;SDS011;68932;47.410;8.232;2023-04-25T05:24:33;5.30;;;3.90;;
79464;SDS011;68932;47.410;8.232;2023-04-25T05:27:00;4.00;;;3.10;;
79464;SDS011;68932;47.410;8.232;2023-04-25T05:29:27;5.90;;;2.90;;
79464;SDS011;68932;47.410;8.232;2023-04-25T05:31:54;6.40;;;2.50;;
79464;SDS011;68932;47.410;8.232;2023-04-25T05:34:21;6.70;;;3.90;;
79464;SDS011;68932;47.410;8.232;2023-04-25T05:36:48;4.60;;;3.00;;
79464;SDS011;68932;47.410;8.232;2023-04-25T05:39:15;4.90;;;3.20;;
79464;SDS011;68932;47.410;8.232;2023-04-25T05:41:43;6.00;;;3.20;;
79464;SDS011;68932;47.410;8.232;2023-04-25T05:44:10;3.00;;;2.60;;
79464;SDS011;68932;47.410;8.232;2023-04-25T05:46:36;4.10;;;2.80;;
79464;SDS011;68932;47.410;8.232;2023-04-25T05:49:03;5.90;;;3.50;;
79464;SDS011;68932;47.410;8.232;2023-04-25T05:51:30;6.10;;;3.40;;
79464;SDS011;68932;47.410;8.232;2023-04-25T05:53:57;7.40;;;3.60;;
79464;SDS011;68932;47.410;8.232;2023-04-25T05:56:24;7.20;;;3.80;;
79464;SDS011;68932;47.410;8.232;2023-04-25T05:58:51;6.70;;;3.40;;
79464;SDS011;68932;47.410;8.232;2023-04-25T06:01:18;6.10;;;3.20;;
79464;SDS011;68932;47.410;8.232;2023-04-25T06:03:45;6.20;;;3.80;;
79464;SDS011;68932;47.410;8.232;2023-04-25T06:06:12;5.10;;;2.30;;
79464;SDS011;68932;47.410;8.232;2023-04-25T06:08:39;2.70;;;1.80;;
79464;SDS011;68932;47.410;8.232;2023-04-25T06:11:06;3.70;;;2.40;;
79464;SDS011;68932;47.410;8.232;2023-04-25T06:13:33;5.80;;;2.50;;
79464;SDS011;68932;47.410;8.232;2023-04-25T06:16:00;4.30;;;2.40;;
79464;SDS011;68932;47.410;8.232;2023-04-25T06:18:27;3.10;;;2.50;;
79464;SDS011;68932;47.410;8.232;2023-04-25T06:20:54;3.40;;;2.30;;
79464;SDS011;68932;47.410;8.232;2023-04-25T06:23:21;7.60;;;3.20;;
79464;SDS011;68932;47.410;8.232;2023-04-25T06:25:48;3.90;;;2.20;;
79464;SDS011;68932;47.410;8.232;2023-04-25T06:28:15;5.80;;;2.80;;
79464;SDS011;68932;47.410;8.232;2023-04-25T06:30:42;6.40;;;2.60;;
79464;SDS011;68932;47.410;8.232;2023-04-25T06:33:09;7.10;;;3.70;;
79464;SDS011;68932;47.410;8.232;2023-04-25T06:35:36;5.30;;;3.90;;
79464;SDS011;68932;47.410;8.232;2023-04-25T06:38:03;11.00;;;5.10;;
79464;SDS011;68932;47.410;8.232;2023-04-25T06:40:30;3.80;;;2.40;;
79464;SDS011;68932;47.410;8.232;2023-04-25T06:42:57;5.20;;;3.60;;
79464;SDS011;68932;47.410;8.232;2023-04-25T06:45:24;6.30;;;2.20;;
79464;SDS011;68932;47.410;8.232;2023-04-25T06:47:51;3.60;;;2.60;;
79464;SDS011;68932;47.410;8.232;2023-04-25T06:50:18;3.80;;;2.40;;
79464;SDS011;68932;47.410;8.232;2023-04-25T06:52:45;4.20;;;1.90;;
79464;SDS011;68932;47.410;8.232;2023-04-25T06:55:12;1.60;;;1.10;;
79464;SDS011;68932;47.410;8.232;2023-04-25T06:57:39;3.40;;;1.40;;
79464;SDS011;68932;47.410;8.232;2023-04-25T07:00:07;3.20;;;1.70;;
79464;SDS011;68932;47.410;8.232;2023-04-25T07:02:35;4.10;;;2.30;;
79464;SDS011;68932;47.410;8.232;2023-04-25T07:05:02;2.20;;;1.40;;
79464;SDS011;68932;47.410;8.232;2023-04-25T07:07:30;2.10;;;1.10;;
79464;SDS011;68932;47.410;8.232;2023-04-25T07:09:57;2.10;;;1.50;;
79464;SDS011;68932;47.410;8.232;2023-04-25T07:12:23;3.20;;;1.80;;
79464;SDS011;68932;47.410;8.232;2023-04-25T07:14:50;3.90;;;1.50;;
79464;SDS011;68932;47.410;8.232;2023-04-25T07:17:17;4.10;;;1.60;;
79464;SDS011;68932;47.410;8.232;2023-04-25T07:19:44;2.70;;;1.80;;
79464;SDS011;68932;47.410;8.232;2023-04-25T07:22:11;3.00;;;1.80;;
79464;SDS011;68932;47.410;8.232;2023-04-25T07:24:38;3.00;;;1.40;;
79464;SDS011;68932;47.410;8.232;2023-04-25T07:27:06;5.20;;;2.00;;
79464;SDS011;68932;47.410;8.232;2023-04-25T07:29:33;3.50;;;2.70;;
79464;SDS011;68932;47.410;8.232;2023-04-25T07:31:59;2.70;;;1.50;;
79464;SDS011;68932;47.410;8.232;2023-04-25T07:34:26;5.30;;;2.20;;
79464;SDS011;68932;47.410;8.232;2023-04-25T07:36:53;3.00;;;2.20;;
79464;SDS011;68932;47.410;8.232;2023-04-25T07:39:20;1.90;;;1.40;;
79464;SDS011;68932;47.410;8.232;2023-04-25T07:41:47;2.40;;;2.00;;
79464;SDS011;68932;47.410;8.232;2023-04-25T07:44:14;2.40;;;1.90;;
79464;SDS011;68932;47.410;8.232;2023-04-25T07:46:41;3.90;;;2.40;;
79464;SDS011;68932;47.410;8.232;2023-04-25T07:49:08;6.10;;;3.70;;
79464;SDS011;68932;47.410;8.232;2023-04-25T07:51:35;7.00;;;3.80;;
79464;SDS011;68932;47.410;8.232;2023-04-25T07:54:03;5.30;;;3.30;;
79464;SDS011;68932;47.410;8.232;2023-04-25T07:56:30;2.90;;;2.20;;
79464;SDS011;68932;47.410;8.232;2023-04-25T07:58:57;5.90;;;3.00;;
79464;SDS011;68932;47.410;8.232;2023-04-25T08:01:24;4.00;;;2.30;;
79464;SDS011;68932;47.410;8.232;2023-04-25T08:03:51;4.00;;;2.90;;
79464;SDS011;68932;47.410;8.232;2023-04-25T08:06:18;2.80;;;2.30;;
79464;SDS011;68932;47.410;8.232;2023-04-25T08:08:45;3.70;;;2.60;;
79464;SDS011;68932;47.410;8.232;2023-04-25T08:11:12;2.10;;;1.60;;
79464;SDS011;68932;47.410;8.232;2023-04-25T08:13:39;3.00;;;2.10;;
79464;SDS011;68932;47.410;8.232;2023-04-25T08:16:05;4.00;;;1.90;;
79464;SDS011;68932;47.410;8.232;2023-04-25T08:18:32;3.40;;;2.00;;
79464;SDS011;68932;47.410;8.232;2023-04-25T08:20:59;3.20;;;2.40;;
79464;SDS011;68932;47.410;8.232;2023-04-25T08:23:26;3.40;;;1.80;;
79464;SDS011;68932;47.410;8.232;2023-04-25T08:25:53;2.30;;;1.80;;
79464;SDS011;68932;47.410;8.232;2023-04-25T08:28:20;4.00;;;2.20;;
79464;SDS011;68932;47.410;8.232;2023-04-25T08:30:47;4.10;;;2.50;;
79464;SDS011;68932;47.410;8.232;2023-04-25T08:33:14;3.40;;;1.80;;
79464;SDS011;68932;47.410;8.232;2023-04-25T08:35:41;5.30;;;2.70;;
79464;SDS011;68932;47.410;8.232;2023-04-25T08:38:10;2.90;;;2.30;;
79464;SDS011;68932;47.410;8.232;2023-04-25T08:40:38;3.70;;;2.00;;
79464;SDS011;68932;47.410;8.232;2023-04-25T08:43:06;4.50;;;2.40;;
79464;SDS011;68932;47.410;8.232;2023-04-25T08:45:33;3.00;;;2.00;;
79464;SDS011;68932;47.410;8.232;2023-04-25T08:48:02;4.50;;;2.00;;
79464;SDS011;68932;47.410;8.232;2023-04-25T08:50:31;2.30;;;1.30;;
79464;SDS011;68932;47.410;8.232;2023-04-25T08:52:59;3.40;;;2.70;;
79464;SDS011;68932;47.410;8.232;2023-04-25T08:55:29;4.00;;;2.40;;
79464;SDS011;68932;47.410;8.232;2023-04-25T08:57:57;2.60;;;2.40;;
79464;SDS011;68932;47.410;8.232;2023-04-25T09:00:25;4.40;;;3.10;;
79464;SDS011;68932;47.410;8.232;2023-04-25T09:02:53;2.60;;;1.70;;
79464;SDS011;68932;47.410;8.232;2023-04-25T09:05:20;2.60;;;1.50;;
79464;SDS011;68932;47.410;8.232;2023-04-25T09:07:48;2.60;;;1.40;;
79464;SDS011;68932;47.410;8.232;2023-04-25T09:10:15;2.80;;;1.50;;
79464;SDS011;68932;47.410;8.232;2023-04-25T09:12:42;1.20;;;0.80;;
79464;SDS011;68932;47.410;8.232;2023-04-25T09:15:11;1.60;;;1.30;;
79464;SDS011;68932;47.410;8.232;2023-04-25T09:17:39;1.20;;;1.00;;
79464;SDS011;68932;47.410;8.232;2023-04-25T09:20:08;2.30;;;1.20;;
79464;SDS011;68932;47.410;8.232;2023-04-25T09:22:38;1.20;;;1.10;;
79464;SDS011;68932;47.410;8.232;2023-04-25T09:25:08;2.30;;;0.90;;
79464;SDS011;68932;47.410;8.232;2023-04-25T09:27:37;1.00;;;0.80;;
79464;SDS011;68932;47.410;8.232;2023-04-25T09:30:16;0.90;;;0.60;;
79464;SDS011;68932;47.410;8.232;2023-04-25T09:32:43;1.90;;;1.40;;
79464;SDS011;68932;47.410;8.232;2023-04-25T09:35:10;3.30;;;1.20;;
79464;SDS011;68932;47.410;8.232;2023-04-25T09:37:50;1.40;;;0.70;;
79464;SDS011;68932;47.410;8.232;2023-04-25T09:40:17;2.10;;;0.80;;
79464;SDS011;68932;47.410;8.232;2023-04-25T09:42:44;1.60;;;0.80;;
79464;SDS011;68932;47.410;8.232;2023-04-25T09:45:12;4.40;;;1.40;;
79464;SDS011;68932;47.410;8.232;2023-04-25T09:47:39;0.80;;;0.60;;
79464;SDS011;68932;47.410;8.232;2023-04-25T09:50:13;1.00;;;0.60;;
79464;SDS011;68932;47.410;8.232;2023-04-25T09:52:41;1.60;;;1.10;;
79464;SDS011;68932;47.410;8.232;2023-04-25T09:55:08;2.20;;;1.50;;
79464;SDS011;68932;47.410;8.232;2023-04-25T09:57:35;1.20;;;0.70;;
79464;SDS011;68932;47.410;8.232;2023-04-25T10:00:03;3.50;;;0.90;;
79464;SDS011;68932;47.410;8.232;2023-04-25T10:02:34;1.30;;;0.70;;
79464;SDS011;68932;47.410;8.232;2023-04-25T10:05:02;1.70;;;1.10;;
79464;SDS011;68932;47.410;8.232;2023-04-25T10:07:33;1.20;;;0.90;;
79464;SDS011;68932;47.410;8.232;2023-04-25T10:10:02;0.90;;;0.80;;
79464;SDS011;68932;47.410;8.232;2023-04-25T10:12:31;2.20;;;1.60;;
79464;SDS011;68932;47.410;8.232;2023-04-25T10:14:59;1.70;;;1.10;;
79464;SDS011;68932;47.410;8.232;2023-04-25T10:17:27;1.40;;;0.80;;
79464;SDS011;68932;47.410;8.232;2023-04-25T10:19:54;1.70;;;1.20;;
79464;SDS011;68932;47.410;8.232;2023-04-25T10:22:23;2.10;;;1.30;;
79464;SDS011;68932;47.410;8.232;2023-04-25T10:24:56;1.30;;;0.90;;
79464;SDS011;68932;47.410;8.232;2023-04-25T10:27:24;1.70;;;0.70;;
79464;SDS011;68932;47.410;8.232;2023-04-25T10:30:00;1.80;;;1.20;;
79464;SDS011;68932;47.410;8.232;2023-04-25T10:32:29;1.30;;;0.60;;
79464;SDS011;68932;47.410;8.232;2023-04-25T10:35:04;0.70;;;0.50;;
79464;SDS011;68932;47.410;8.232;2023-04-25T10:37:37;1.00;;;0.70;;
79464;SDS011;68932;47.410;8.232;2023-04-25T10:40:09;1.10;;;0.90;;
79464;SDS011;68932;47.410;8.232;2023-04-25T10:42:36;1.60;;;0.90;;
79464;SDS011;68932;47.410;8.232;2023-04-25T10:45:05;1.60;;;1.00;;
79464;SDS011;68932;47.410;8.232;2023-04-25T10:47:36;1.00;;;0.90;;
79464;SDS011;68932;47.410;8.232;2023-04-25T10:50:10;1.50;;;1.00;;
79464;SDS011;68932;47.410;8.232;2023-04-25T10:52:40;1.10;;;0.70;;
79464;SDS011;68932;47.410;8.232;2023-04-25T10:55:08;1.30;;;0.90;;
79464;SDS011;68932;47.410;8.232;2023-04-25T10:57:40;2.60;;;1.10;;
79464;SDS011;68932;47.410;8.232;2023-04-25T11:00:10;1.60;;;1.50;;
79464;SDS011;68932;47.410;8.232;2023-04-25T11:02:42;1.00;;;0.70;;
79464;SDS011;68932;47.410;8.232;2023-04-25T11:05:12;0.90;;;0.70;;
79464;SDS011;68932;47.410;8.232;2023-04-25T11:07:48;2.70;;;1.20;;
79464;SDS011;68932;47.410;8.232;2023-04-25T11:10:16;1.00;;;0.70;;
79464;SDS011;68932;47.410;8.232;2023-04-25T11:12:45;1.80;;;1.30;;
79464;SDS011;68932;47.410;8.232;2023-04-25T11:15:12;1.90;;;1.30;;
79464;SDS011;68932;47.410;8.232;2023-04-25T11:17:40;1.60;;;1.00;;
79464;SDS011;68932;47.410;8.232;2023-04-25T11:20:08;1.00;;;0.90;;
79464;SDS011;68932;47.410;8.232;2023-04-25T11:22:35;1.90;;;1.30;;
79464;SDS011;68932;47.410;8.232;2023-04-25T11:25:07;2.20;;;1.20;;
79464;SDS011;68932;47.410;8.232;2023-04-25T11:27:38;2.30;;;0.80;;
79464;SDS011;68932;47.410;8.232;2023-04-25T11:30:15;2.90;;;1.50;;
79464;SDS011;68932;47.410;8.232;2023-04-25T11:32:43;1.90;;;1.40;;
79464;SDS011;68932;47.410;8.232;2023-04-25T11:35:10;2.80;;;1.50;;
79464;SDS011;68932;47.410;8.232;2023-04-25T11:37:39;1.90;;;1.40;;
79464;SDS011;68932;47.410;8.232;2023-04-25T11:40:07;2.90;;;1.50;;
79464;SDS011;68932;47.410;8.232;2023-04-25T11:42:37;1.90;;;1.20;;
79464;SDS011;68932;47.410;8.232;2023-04-25T11:45:05;1.20;;;0.90;;
79464;SDS011;68932;47.410;8.232;2023-04-25T11:47:33;1.60;;;0.60;;
79464;SDS011;68932;47.410;8.232;2023-04-25T11:50:00;2.30;;;0.90;;
79464;SDS011;68932;47.410;8.232;2023-04-25T11:52:38;1.50;;;0.80;;
79464;SDS011;68932;47.410;8.232;2023-04-25T11:55:08;1.10;;;0.90;;
79464;SDS011;68932;47.410;8.232;2023-04-25T11:57:39;1.90;;;0.60;;
79464;SDS011;68932;47.410;8.232;2023-04-25T12:00:10;1.50;;;1.10;;
79464;SDS011;68932;47.410;8.232;2023-04-25T12:02:41;2.70;;;1.40;;
79464;SDS011;68932;47.410;8.232;2023-04-25T12:05:09;1.80;;;0.90;;
79464;SDS011;68932;47.410;8.232;2023-04-25T12:07:36;3.00;;;0.90;;
79464;SDS011;68932;47.410;8.232;2023-04-25T12:10:07;2.50;;;0.80;;
79464;SDS011;68932;47.410;8.232;2023-04-25T12:12:36;1.20;;;1.10;;
79464;SDS011;68932;47.410;8.232;2023-04-25T12:15:11;1.40;;;1.20;;
79464;SDS011;68932;47.410;8.232;2023-04-25T12:17:40;1.30;;;1.20;;
79464;SDS011;68932;47.410;8.232;2023-04-25T12:20:09;2.10;;;1.00;;
79464;SDS011;68932;47.410;8.232;2023-04-25T12:22:39;1.60;;;0.90;;
79464;SDS011;68932;47.410;8.232;2023-04-25T12:25:08;1.70;;;1.00;;
79464;SDS011;68932;47.410;8.232;2023-04-25T12:27:35;1.90;;;1.00;;
79464;SDS011;68932;47.410;8.232;2023-04-25T12:30:03;1.50;;;0.80;;
79464;SDS011;68932;47.410;8.232;2023-04-25T12:32:31;1.50;;;0.90;;
79464;SDS011;68932;47.410;8.232;2023-04-25T12:34:58;1.10;;;0.60;;
79464;SDS011;68932;47.410;8.232;2023-04-25T12:37:25;2.80;;;1.30;;
79464;SDS011;68932;47.410;8.232;2023-04-25T12:39:54;1.80;;;1.00;;
79464;SDS011;68932;47.410;8.232;2023-04-25T12:42:21;1.80;;;1.10;;
79464;SDS011;68932;47.410;8.232;2023-04-25T12:44:48;1.80;;;1.10;;
79464;SDS011;68932;47.410;8.232;2023-04-25T12:47:15;2.10;;;1.10;;
79464;SDS011;68932;47.410;8.232;2023-04-25T12:49:41;1.40;;;1.00;;
79464;SDS011;68932;47.410;8.232;2023-04-25T12:52:08;2.00;;;1.10;;
79464;SDS011;68932;47.410;8.232;2023-04-25T12:54:35;1.60;;;1.10;;
79464;SDS011;68932;47.410;8.232;2023-04-25T12:57:02;2.40;;;1.20;;
79464;SDS011;68932;47.410;8.232;2023-04-25T12:59:29;2.40;;;1.10;;
79464;SDS011;68932;47.410;8.232;2023-04-25T13:01:56;2.30;;;1.40;;
79464;SDS011;68932;47.410;8.232;2023-04-25T13:04:23;1.10;;;0.90;;
79464;SDS011;68932;47.410;8.232;2023-04-25T13:06:50;1.00;;;0.60;;
79464;SDS011;68932;47.410;8.232;2023-04-25T13:09:17;2.20;;;0.90;;
79464;SDS011;68932;47.410;8.232;2023-04-25T13:11:44;1.90;;;1.80;;
79464;SDS011;68932;47.410;8.232;2023-04-25T13:14:11;1.60;;;1.20;;
79464;SDS011;68932;47.410;8.232;2023-04-25T13:16:38;1.00;;;0.70;;
79464;SDS011;68932;47.410;8.232;2023-04-25T13:19:05;1.60;;;1.00;;
79464;SDS011;68932;47.410;8.232;2023-04-25T13:21:32;1.30;;;1.00;;
79464;SDS011;68932;47.410;8.232;2023-04-25T13:23:59;1.70;;;0.90;;
79464;SDS011;68932;47.410;8.232;2023-04-25T13:26:26;1.00;;;0.90;;
79464;SDS011;68932;47.410;8.232;2023-04-25T13:28:53;1.20;;;0.90;;
79464;SDS011;68932;47.410;8.232;2023-04-25T13:31:20;2.10;;;1.10;;
79464;SDS011;68932;47.410;8.232;2023-04-25T13:33:47;2.60;;;1.30;;
79464;SDS011;68932;47.410;8.232;2023-04-25T13:36:14;1.10;;;0.60;;
79464;SDS011;68932;47.410;8.232;2023-04-25T13:38:41;1.20;;;0.90;;
79464;SDS011;68932;47.410;8.232;2023-04-25T13:41:08;2.00;;;1.20;;
79464;SDS011;68932;47.410;8.232;2023-04-25T13:43:35;3.00;;;0.90;;
79464;SDS011;68932;47.410;8.232;2023-04-25T13:46:02;1.70;;;1.60;;
79464;SDS011;68932;47.410;8.232;2023-04-25T13:48:29;2.50;;;1.40;;
79464;SDS011;68932;47.410;8.232;2023-04-25T13:50:56;1.30;;;1.00;;
79464;SDS011;68932;47.410;8.232;2023-04-25T13:53:23;1.80;;;1.30;;
79464;SDS011;68932;47.410;8.232;2023-04-25T13:55:50;1.70;;;1.20;;
79464;SDS011;68932;47.410;8.232;2023-04-25T13:58:17;1.50;;;1.40;;
79464;SDS011;68932;47.410;8.232;2023-04-25T14:00:45;0.90;;;0.60;;
79464;SDS011;68932;47.410;8.232;2023-04-25T14:03:12;1.30;;;1.20;;
79464;SDS011;68932;47.410;8.232;2023-04-25T14:05:39;1.80;;;1.30;;
79464;SDS011;68932;47.410;8.232;2023-04-25T14:08:06;1.60;;;1.00;;
79464;SDS011;68932;47.410;8.232;2023-04-25T14:10:34;2.10;;;1.10;;
79464;SDS011;68932;47.410;8.232;2023-04-25T14:13:02;1.60;;;0.90;;
79464;SDS011;68932;47.410;8.232;2023-04-25T14:15:30;1.00;;;0.70;;
79464;SDS011;68932;47.410;8.232;2023-04-25T14:17:58;1.70;;;0.80;;
79464;SDS011;68932;47.410;8.232;2023-04-25T14:20:25;1.00;;;0.90;;
79464;SDS011;68932;47.410;8.232;2023-04-25T14:22:52;1.30;;;0.80;;
79464;SDS011;68932;47.410;8.232;2023-04-25T14:25:19;1.80;;;0.90;;
79464;SDS011;68932;47.410;8.232;2023-04-25T14:27:46;2.00;;;1.00;;
79464;SDS011;68932;47.410;8.232;2023-04-25T14:30:14;1.40;;;1.30;;
79464;SDS011;68932;47.410;8.232;2023-04-25T14:32:41;1.10;;;0.90;;
79464;SDS011;68932;47.410;8.232;2023-04-25T14:35:09;1.20;;;1.10;;
79464;SDS011;68932;47.410;8.232;2023-04-25T14:37:36;2.20;;;1.60;;
79464;SDS011;68932;47.410;8.232;2023-04-25T14:40:03;1.80;;;1.10;;
79464;SDS011;68932;47.410;8.232;2023-04-25T14:42:31;1.00;;;0.70;;
79464;SDS011;68932;47.410;8.232;2023-04-25T14:44:59;1.50;;;0.90;;
79464;SDS011;68932;47.410;8.232;2023-04-25T14:47:25;2.60;;;1.80;;
79464;SDS011;68932;47.410;8.232;2023-04-25T14:49:52;1.30;;;1.00;;